sensor_id;sensor_type;location;lat;lon;timestamp;temperature;humidity
26583;DHT22;14230;45.382;10.998;2023-03-01T00:01:39;6.40;99.90
26583;DHT22;14230;45.382;10.998;2023-03-01T00:04:07;6.40;99.90
26583;DHT22;14230;45.382;10.998;2023-03-01T00:06:34;6.40;99.90
26583;DHT22;14230;45.382;10.998;2023-03-01T00:09:02;6.40;99.90
26583;DHT22;14230;45.382;10.998;2023-03-01T00:11:31;6.40;99.90
26583;DHT22;14230;45.382;10.998;2023-03-01T00:14:00;6.30;99.90
26583;DHT22;14230;45.382;10.998;2023-03-01T00:16:30;6.20;99.90
26583;DHT22;14230;45.382;10.998;2023-03-01T00:18:59;6.20;99.90
26583;DHT22;14230;45.382;10.998;2023-03-01T00:21:27;6.00;99.90
26583;DHT22;14230;45.382;10.998;2023-03-01T00:23:55;5.90;99.90
26583;DHT22;14230;45.382;10.998;2023-03-01T00:26:24;5.90;99.90
26583;DHT22;14230;45.382;10.998;2023-03-01T00:28:52;5.80;99.90
26583;DHT22;14230;45.382;10.998;2023-03-01T00:31:22;5.80;99.90
26583;DHT22;14230;45.382;10.998;2023-03-01T00:33:54;5.60;99.90
26583;DHT22;14230;45.382;10.998;2023-03-01T00:36:27;5.60;99.90
26583;DHT22;14230;45.382;10.998;2023-03-01T00:38:56;5.50;99.90
26583;DHT22;14230;45.382;10.998;2023-03-01T00:41:24;5.40;99.90
26583;DHT22;14230;45.382;10.998;2023-03-01T00:43:54;5.40;99.90
26583;DHT22;14230;45.382;10.998;2023-03-01T00:46:24;5.40;99.90
26583;DHT22;14230;45.382;10.998;2023-03-01T00:48:53;5.20;99.90
26583;DHT22;14230;45.382;10.998;2023-03-01T00:51:24;5.20;99.90
26583;DHT22;14230;45.382;10.998;2023-03-01T00:53:54;5.20;99.90
26583;DHT22;14230;45.382;10.998;2023-03-01T00:56:22;5.20;99.90
26583;DHT22;14230;45.382;10.998;2023-03-01T00:58:50;5.10;99.90
26583;DHT22;14230;45.382;10.998;2023-03-01T01:01:23;5.10;99.90
26583;DHT22;14230;45.382;10.998;2023-03-01T01:04:00;5.00;99.90
26583;DHT22;14230;45.382;10.998;2023-03-01T01:06:30;4.90;99.90
26583;DHT22;14230;45.382;10.998;2023-03-01T01:09:00;4.90;99.90
26583;DHT22;14230;45.382;10.998;2023-03-01T01:11:29;4.80;99.90
26583;DHT22;14230;45.382;10.998;2023-03-01T01:13:57;4.80;99.90
26583;DHT22;14230;45.382;10.998;2023-03-01T01:16:27;4.70;99.90
26583;DHT22;14230;45.382;10.998;2023-03-01T01:18:56;4.70;99.90
26583;DHT22;14230;45.382;10.998;2023-03-01T01:21:25;4.60;99.90
26583;DHT22;14230;45.382;10.998;2023-03-01T01:23:53;4.70;99.90
26583;DHT22;14230;45.382;10.998;2023-03-01T01:26:26;4.70;99.90
26583;DHT22;14230;45.382;10.998;2023-03-01T01:28:55;4.80;99.90
26583;DHT22;14230;45.382;10.998;2023-03-01T01:31:25;4.80;99.90
26583;DHT22;14230;45.382;10.998;2023-03-01T01:33:53;4.70;99.90
26583;DHT22;14230;45.382;10.998;2023-03-01T01:36:22;4.80;99.90
26583;DHT22;14230;45.382;10.998;2023-03-01T01:38:50;4.90;99.90
26583;DHT22;14230;45.382;10.998;2023-03-01T01:41:19;4.80;99.90
26583;DHT22;14230;45.382;10.998;2023-03-01T01:44:11;4.80;99.90
26583;DHT22;14230;45.382;10.998;2023-03-01T01:46:41;4.80;99.90
26583;DHT22;14230;45.382;10.998;2023-03-01T01:52:03;4.70;99.90
26583;DHT22;14230;45.382;10.998;2023-03-01T01:57:07;4.60;99.90
26583;DHT22;14230;45.382;10.998;2023-03-01T01:59:37;4.50;99.90
26583;DHT22;14230;45.382;10.998;2023-03-01T02:02:06;4.50;99.90
26583;DHT22;14230;45.382;10.998;2023-03-01T02:04:33;4.60;99.90
26583;DHT22;14230;45.382;10.998;2023-03-01T02:07:17;4.50;99.90
26583;DHT22;14230;45.382;10.998;2023-03-01T02:09:50;4.50;99.90
26583;DHT22;14230;45.382;10.998;2023-03-01T02:12:23;4.50;99.90
26583;DHT22;14230;45.382;10.998;2023-03-01T02:14:51;4.60;99.90
26583;DHT22;14230;45.382;10.998;2023-03-01T02:17:19;4.60;99.90
26583;DHT22;14230;45.382;10.998;2023-03-01T02:20:33;4.50;99.90
26583;DHT22;14230;45.382;10.998;2023-03-01T02:22:58;4.50;99.90
26583;DHT22;14230;45.382;10.998;2023-03-01T02:30:47;4.20;99.90
26583;DHT22;14230;45.382;10.998;2023-03-01T02:33:36;4.20;99.90
26583;DHT22;14230;45.382;10.998;2023-03-01T02:36:08;4.20;99.90
26583;DHT22;14230;45.382;10.998;2023-03-01T02:38:36;4.20;99.90
26583;DHT22;14230;45.382;10.998;2023-03-01T02:41:05;4.20;99.90
26583;DHT22;14230;45.382;10.998;2023-03-01T02:43:34;4.30;99.90
26583;DHT22;14230;45.382;10.998;2023-03-01T02:46:08;4.40;99.90
26583;DHT22;14230;45.382;10.998;2023-03-01T02:48:50;4.40;99.90
26583;DHT22;14230;45.382;10.998;2023-03-01T02:54:12;4.50;99.90
26583;DHT22;14230;45.382;10.998;2023-03-01T02:56:43;4.50;99.90
26583;DHT22;14230;45.382;10.998;2023-03-01T02:59:11;4.60;99.90
26583;DHT22;14230;45.382;10.998;2023-03-01T03:01:39;4.60;99.90
26583;DHT22;14230;45.382;10.998;2023-03-01T03:04:11;4.60;99.90
26583;DHT22;14230;45.382;10.998;2023-03-01T03:06:39;4.70;99.90
26583;DHT22;14230;45.382;10.998;2023-03-01T03:09:06;4.70;99.90
26583;DHT22;14230;45.382;10.998;2023-03-01T03:11:35;4.80;99.90
26583;DHT22;14230;45.382;10.998;2023-03-01T03:14:04;4.90;99.90
26583;DHT22;14230;45.382;10.998;2023-03-01T03:16:35;4.90;99.90
26583;DHT22;14230;45.382;10.998;2023-03-01T03:19:02;4.90;99.90
26583;DHT22;14230;45.382;10.998;2023-03-01T03:21:32;5.00;99.90
26583;DHT22;14230;45.382;10.998;2023-03-01T03:24:00;5.10;99.90
26583;DHT22;14230;45.382;10.998;2023-03-01T03:26:28;5.00;99.90
26583;DHT22;14230;45.382;10.998;2023-03-01T03:28:56;5.10;99.90
26583;DHT22;14230;45.382;10.998;2023-03-01T03:31:24;5.10;99.90
26583;DHT22;14230;45.382;10.998;2023-03-01T03:33:52;5.00;99.90
26583;DHT22;14230;45.382;10.998;2023-03-01T03:36:21;5.10;99.90
26583;DHT22;14230;45.382;10.998;2023-03-01T03:38:49;5.00;99.90
26583;DHT22;14230;45.382;10.998;2023-03-01T03:41:17;5.00;99.90
26583;DHT22;14230;45.382;10.998;2023-03-01T03:43:45;5.00;99.90
26583;DHT22;14230;45.382;10.998;2023-03-01T03:46:13;5.00;99.90
26583;DHT22;14230;45.382;10.998;2023-03-01T03:48:43;5.00;99.90
26583;DHT22;14230;45.382;10.998;2023-03-01T03:51:13;5.00;99.90
26583;DHT22;14230;45.382;10.998;2023-03-01T03:53:41;5.00;99.90
26583;DHT22;14230;45.382;10.998;2023-03-01T03:56:10;5.00;99.90
26583;DHT22;14230;45.382;10.998;2023-03-01T03:58:37;4.90;99.90
26583;DHT22;14230;45.382;10.998;2023-03-01T04:01:05;4.90;99.90
26583;DHT22;14230;45.382;10.998;2023-03-01T04:03:33;4.90;99.90
26583;DHT22;14230;45.382;10.998;2023-03-01T04:06:03;4.90;99.90
26583;DHT22;14230;45.382;10.998;2023-03-01T04:08:31;4.90;99.90
26583;DHT22;14230;45.382;10.998;2023-03-01T04:11:01;4.90;99.90
26583;DHT22;14230;45.382;10.998;2023-03-01T04:13:49;4.90;99.90
26583;DHT22;14230;45.382;10.998;2023-03-01T04:16:17;4.90;99.90
26583;DHT22;14230;45.382;10.998;2023-03-01T04:18:45;4.90;99.90
26583;DHT22;14230;45.382;10.998;2023-03-01T04:21:13;4.80;99.90
26583;DHT22;14230;45.382;10.998;2023-03-01T04:23:41;4.70;99.90
26583;DHT22;14230;45.382;10.998;2023-03-01T04:26:08;4.70;99.90
26583;DHT22;14230;45.382;10.998;2023-03-01T04:28:39;4.60;99.90
26583;DHT22;14230;45.382;10.998;2023-03-01T04:31:16;4.60;99.90
26583;DHT22;14230;45.382;10.998;2023-03-01T04:33:53;4.70;99.90
26583;DHT22;14230;45.382;10.998;2023-03-01T04:36:23;4.70;99.90
26583;DHT22;14230;45.382;10.998;2023-03-01T04:38:51;4.70;99.90
26583;DHT22;14230;45.382;10.998;2023-03-01T04:41:22;4.70;99.90
26583;DHT22;14230;45.382;10.998;2023-03-01T04:43:50;4.80;99.90
26583;DHT22;14230;45.382;10.998;2023-03-01T04:46:19;4.80;99.90
26583;DHT22;14230;45.382;10.998;2023-03-01T04:48:48;4.80;99.90
26583;DHT22;14230;45.382;10.998;2023-03-01T04:51:15;4.80;99.90
26583;DHT22;14230;45.382;10.998;2023-03-01T04:53:43;4.80;99.90
26583;DHT22;14230;45.382;10.998;2023-03-01T04:56:12;4.80;99.90
26583;DHT22;14230;45.382;10.998;2023-03-01T04:58:43;4.70;99.90
26583;DHT22;14230;45.382;10.998;2023-03-01T05:01:13;4.70;99.90
26583;DHT22;14230;45.382;10.998;2023-03-01T05:03:49;4.70;99.90
26583;DHT22;14230;45.382;10.998;2023-03-01T05:06:18;4.80;99.90
26583;DHT22;14230;45.382;10.998;2023-03-01T05:08:45;4.90;99.90
26583;DHT22;14230;45.382;10.998;2023-03-01T05:11:13;4.90;99.90
26583;DHT22;14230;45.382;10.998;2023-03-01T05:13:41;4.90;99.90
26583;DHT22;14230;45.382;10.998;2023-03-01T05:16:09;4.90;99.90
26583;DHT22;14230;45.382;10.998;2023-03-01T05:18:39;4.80;99.90
26583;DHT22;14230;45.382;10.998;2023-03-01T05:21:09;4.80;99.90
26583;DHT22;14230;45.382;10.998;2023-03-01T05:23:37;4.80;99.90
26583;DHT22;14230;45.382;10.998;2023-03-01T05:26:06;4.90;99.90
26583;DHT22;14230;45.382;10.998;2023-03-01T05:28:37;4.90;99.90
26583;DHT22;14230;45.382;10.998;2023-03-01T05:31:07;4.90;99.90
26583;DHT22;14230;45.382;10.998;2023-03-01T05:33:37;5.00;99.90
26583;DHT22;14230;45.382;10.998;2023-03-01T05:36:07;5.00;99.90
26583;DHT22;14230;45.382;10.998;2023-03-01T05:38:36;5.00;99.90
26583;DHT22;14230;45.382;10.998;2023-03-01T05:41:04;5.10;99.90
26583;DHT22;14230;45.382;10.998;2023-03-01T05:43:32;5.00;99.90
26583;DHT22;14230;45.382;10.998;2023-03-01T05:46:01;5.00;99.90
26583;DHT22;14230;45.382;10.998;2023-03-01T05:48:29;5.00;99.90
26583;DHT22;14230;45.382;10.998;2023-03-01T05:50:59;5.00;99.90
26583;DHT22;14230;45.382;10.998;2023-03-01T05:53:27;5.00;99.90
26583;DHT22;14230;45.382;10.998;2023-03-01T05:55:55;5.10;99.90
26583;DHT22;14230;45.382;10.998;2023-03-01T05:58:22;5.10;99.90
26583;DHT22;14230;45.382;10.998;2023-03-01T06:00:51;5.20;99.90
26583;DHT22;14230;45.382;10.998;2023-03-01T06:03:21;5.20;99.90
26583;DHT22;14230;45.382;10.998;2023-03-01T06:05:48;5.20;99.90
26583;DHT22;14230;45.382;10.998;2023-03-01T06:08:16;5.30;99.90
26583;DHT22;14230;45.382;10.998;2023-03-01T06:10:43;5.40;99.90
26583;DHT22;14230;45.382;10.998;2023-03-01T06:13:11;5.40;99.90
26583;DHT22;14230;45.382;10.998;2023-03-01T06:15:38;5.40;99.90
26583;DHT22;14230;45.382;10.998;2023-03-01T06:18:06;5.50;99.90
26583;DHT22;14230;45.382;10.998;2023-03-01T06:20:33;5.50;99.90
26583;DHT22;14230;45.382;10.998;2023-03-01T06:23:01;5.60;99.90
26583;DHT22;14230;45.382;10.998;2023-03-01T06:25:28;5.70;99.90
26583;DHT22;14230;45.382;10.998;2023-03-01T06:27:56;5.70;99.90
26583;DHT22;14230;45.382;10.998;2023-03-01T06:30:25;5.70;99.90
26583;DHT22;14230;45.382;10.998;2023-03-01T06:32:53;5.80;99.90
26583;DHT22;14230;45.382;10.998;2023-03-01T06:35:29;5.90;99.90
26583;DHT22;14230;45.382;10.998;2023-03-01T06:37:59;6.00;99.90
26583;DHT22;14230;45.382;10.998;2023-03-01T06:40:28;6.10;99.90
26583;DHT22;14230;45.382;10.998;2023-03-01T06:42:55;6.30;99.90
26583;DHT22;14230;45.382;10.998;2023-03-01T06:45:23;6.30;99.90
26583;DHT22;14230;45.382;10.998;2023-03-01T06:47:51;6.30;99.90
26583;DHT22;14230;45.382;10.998;2023-03-01T06:50:19;6.30;99.90
26583;DHT22;14230;45.382;10.998;2023-03-01T06:52:46;6.30;99.90
26583;DHT22;14230;45.382;10.998;2023-03-01T06:55:14;6.40;99.90
26583;DHT22;14230;45.382;10.998;2023-03-01T06:57:41;6.50;99.90
26583;DHT22;14230;45.382;10.998;2023-03-01T07:00:09;6.60;99.90
26583;DHT22;14230;45.382;10.998;2023-03-01T07:02:37;6.70;99.90
26583;DHT22;14230;45.382;10.998;2023-03-01T07:05:06;6.80;99.90
26583;DHT22;14230;45.382;10.998;2023-03-01T07:07:34;6.80;99.90
26583;DHT22;14230;45.382;10.998;2023-03-01T07:10:01;6.90;99.90
26583;DHT22;14230;45.382;10.998;2023-03-01T07:12:29;6.90;99.90
26583;DHT22;14230;45.382;10.998;2023-03-01T07:14:56;6.90;99.90
26583;DHT22;14230;45.382;10.998;2023-03-01T07:17:23;7.00;99.90
26583;DHT22;14230;45.382;10.998;2023-03-01T07:19:51;7.10;99.90
26583;DHT22;14230;45.382;10.998;2023-03-01T07:22:20;7.00;99.90
26583;DHT22;14230;45.382;10.998;2023-03-01T07:24:50;7.00;99.90
26583;DHT22;14230;45.382;10.998;2023-03-01T07:27:20;7.10;99.90
26583;DHT22;14230;45.382;10.998;2023-03-01T07:29:47;7.10;99.90
26583;DHT22;14230;45.382;10.998;2023-03-01T07:32:14;7.10;99.90
26583;DHT22;14230;45.382;10.998;2023-03-01T07:34:43;7.10;99.90
26583;DHT22;14230;45.382;10.998;2023-03-01T07:37:10;7.10;99.90
26583;DHT22;14230;45.382;10.998;2023-03-01T07:39:38;7.10;99.90
26583;DHT22;14230;45.382;10.998;2023-03-01T07:42:05;7.20;99.90
26583;DHT22;14230;45.382;10.998;2023-03-01T07:44:33;7.30;99.90
26583;DHT22;14230;45.382;10.998;2023-03-01T07:47:02;7.50;99.90
26583;DHT22;14230;45.382;10.998;2023-03-01T07:49:30;7.70;99.90
26583;DHT22;14230;45.382;10.998;2023-03-01T07:51:57;7.80;99.90
26583;DHT22;14230;45.382;10.998;2023-03-01T07:54:25;7.80;99.90
26583;DHT22;14230;45.382;10.998;2023-03-01T07:56:53;7.90;99.90
26583;DHT22;14230;45.382;10.998;2023-03-01T07:59:21;8.10;99.90
26583;DHT22;14230;45.382;10.998;2023-03-01T08:01:50;8.30;99.90
26583;DHT22;14230;45.382;10.998;2023-03-01T08:04:18;8.40;99.90
26583;DHT22;14230;45.382;10.998;2023-03-01T08:06:45;8.40;99.90
26583;DHT22;14230;45.382;10.998;2023-03-01T08:09:13;8.60;99.90
26583;DHT22;14230;45.382;10.998;2023-03-01T08:11:40;8.70;99.90
26583;DHT22;14230;45.382;10.998;2023-03-01T08:14:08;8.80;99.90
26583;DHT22;14230;45.382;10.998;2023-03-01T08:16:35;8.90;99.90
26583;DHT22;14230;45.382;10.998;2023-03-01T08:19:05;8.90;99.90
26583;DHT22;14230;45.382;10.998;2023-03-01T08:21:32;8.90;99.90
26583;DHT22;14230;45.382;10.998;2023-03-01T08:24:03;9.30;99.90
26583;DHT22;14230;45.382;10.998;2023-03-01T08:26:31;9.80;99.90
26583;DHT22;14230;45.382;10.998;2023-03-01T08:29:00;10.00;99.90
26583;DHT22;14230;45.382;10.998;2023-03-01T08:31:34;10.20;99.90
26583;DHT22;14230;45.382;10.998;2023-03-01T08:34:07;10.30;99.90
26583;DHT22;14230;45.382;10.998;2023-03-01T08:36:39;10.30;99.90
26583;DHT22;14230;45.382;10.998;2023-03-01T08:39:08;10.20;99.90
26583;DHT22;14230;45.382;10.998;2023-03-01T08:41:36;10.10;99.90
26583;DHT22;14230;45.382;10.998;2023-03-01T08:44:05;10.00;99.90
26583;DHT22;14230;45.382;10.998;2023-03-01T08:46:35;9.80;99.90
26583;DHT22;14230;45.382;10.998;2023-03-01T08:49:14;9.60;99.90
26583;DHT22;14230;45.382;10.998;2023-03-01T08:51:43;9.40;99.90
26583;DHT22;14230;45.382;10.998;2023-03-01T08:54:19;9.30;99.90
26583;DHT22;14230;45.382;10.998;2023-03-01T08:56:48;9.30;99.90
26583;DHT22;14230;45.382;10.998;2023-03-01T08:59:16;9.20;99.90
26583;DHT22;14230;45.382;10.998;2023-03-01T09:01:44;9.30;99.90
26583;DHT22;14230;45.382;10.998;2023-03-01T09:04:12;9.50;99.90
26583;DHT22;14230;45.382;10.998;2023-03-01T09:06:41;9.60;99.90
26583;DHT22;14230;45.382;10.998;2023-03-01T09:09:16;9.70;99.90
26583;DHT22;14230;45.382;10.998;2023-03-01T09:11:44;9.80;99.90
26583;DHT22;14230;45.382;10.998;2023-03-01T09:14:14;9.70;99.90
26583;DHT22;14230;45.382;10.998;2023-03-01T09:16:42;9.60;99.90
26583;DHT22;14230;45.382;10.998;2023-03-01T09:19:09;9.50;99.90
26583;DHT22;14230;45.382;10.998;2023-03-01T09:21:38;9.50;99.90
26583;DHT22;14230;45.382;10.998;2023-03-01T09:24:13;9.40;99.90
26583;DHT22;14230;45.382;10.998;2023-03-01T09:26:42;9.50;99.90
26583;DHT22;14230;45.382;10.998;2023-03-01T09:29:09;9.40;99.90
26583;DHT22;14230;45.382;10.998;2023-03-01T09:31:37;9.50;99.90
26583;DHT22;14230;45.382;10.998;2023-03-01T09:34:05;9.50;99.90
26583;DHT22;14230;45.382;10.998;2023-03-01T09:36:33;9.50;99.90
26583;DHT22;14230;45.382;10.998;2023-03-01T09:39:01;9.60;99.90
26583;DHT22;14230;45.382;10.998;2023-03-01T09:47:05;10.00;99.90
26583;DHT22;14230;45.382;10.998;2023-03-01T09:49:39;10.10;99.90
26583;DHT22;14230;45.382;10.998;2023-03-01T09:52:43;10.30;99.90
26583;DHT22;14230;45.382;10.998;2023-03-01T09:55:26;10.30;99.90
26583;DHT22;14230;45.382;10.998;2023-03-01T09:58:06;10.30;99.90
26583;DHT22;14230;45.382;10.998;2023-03-01T10:00:43;10.30;99.90
26583;DHT22;14230;45.382;10.998;2023-03-01T10:03:30;10.20;99.90
26583;DHT22;14230;45.382;10.998;2023-03-01T10:08:43;10.00;99.90
26583;DHT22;14230;45.382;10.998;2023-03-01T10:11:31;10.00;99.90
26583;DHT22;14230;45.382;10.998;2023-03-01T10:14:09;10.00;99.90
26583;DHT22;14230;45.382;10.998;2023-03-01T10:16:50;10.10;99.90
26583;DHT22;14230;45.382;10.998;2023-03-01T10:19:44;10.10;99.90
26583;DHT22;14230;45.382;10.998;2023-03-01T10:22:22;10.30;99.90
26583;DHT22;14230;45.382;10.998;2023-03-01T10:24:52;10.30;99.90
26583;DHT22;14230;45.382;10.998;2023-03-01T10:27:46;10.40;99.90
26583;DHT22;14230;45.382;10.998;2023-03-01T10:30:17;10.40;99.90
26583;DHT22;14230;45.382;10.998;2023-03-01T10:32:49;10.40;99.90
26583;DHT22;14230;45.382;10.998;2023-03-01T10:35:27;10.60;99.90
26583;DHT22;14230;45.382;10.998;2023-03-01T10:38:10;10.50;99.90
26583;DHT22;14230;45.382;10.998;2023-03-01T10:43:17;10.80;99.90
26583;DHT22;14230;45.382;10.998;2023-03-01T10:45:46;11.00;99.90
26583;DHT22;14230;45.382;10.998;2023-03-01T10:48:14;11.10;99.90
26583;DHT22;14230;45.382;10.998;2023-03-01T10:50:48;11.20;99.90
26583;DHT22;14230;45.382;10.998;2023-03-01T10:56:09;11.40;99.90
26583;DHT22;14230;45.382;10.998;2023-03-01T10:58:38;11.40;99.90
26583;DHT22;14230;45.382;10.998;2023-03-01T11:03:42;11.80;99.90
26583;DHT22;14230;45.382;10.998;2023-03-01T11:08:45;12.30;99.90
26583;DHT22;14230;45.382;10.998;2023-03-01T11:11:32;12.30;99.90
26583;DHT22;14230;45.382;10.998;2023-03-01T11:14:07;12.10;99.90
26583;DHT22;14230;45.382;10.998;2023-03-01T11:17:13;11.80;99.90
26583;DHT22;14230;45.382;10.998;2023-03-01T11:19:42;11.30;99.90
26583;DHT22;14230;45.382;10.998;2023-03-01T11:22:27;11.30;99.90
26583;DHT22;14230;45.382;10.998;2023-03-01T11:24:56;11.10;99.90
26583;DHT22;14230;45.382;10.998;2023-03-01T11:27:43;11.10;99.90
26583;DHT22;14230;45.382;10.998;2023-03-01T11:30:56;11.10;99.90
26583;DHT22;14230;45.382;10.998;2023-03-01T11:33:48;11.10;99.90
26583;DHT22;14230;45.382;10.998;2023-03-01T11:36:35;11.00;99.90
26583;DHT22;14230;45.382;10.998;2023-03-01T11:42:13;10.80;99.90
26583;DHT22;14230;45.382;10.998;2023-03-01T11:44:48;10.60;99.90
26583;DHT22;14230;45.382;10.998;2023-03-01T12:14:28;10.40;99.90
26583;DHT22;14230;45.382;10.998;2023-03-01T12:20:15;10.20;99.90
26583;DHT22;14230;45.382;10.998;2023-03-01T12:23:20;10.00;99.90
26583;DHT22;14230;45.382;10.998;2023-03-01T12:26:29;9.90;99.90
26583;DHT22;14230;45.382;10.998;2023-03-01T12:29:25;9.80;99.90
26583;DHT22;14230;45.382;10.998;2023-03-01T12:34:51;9.70;99.90
26583;DHT22;14230;45.382;10.998;2023-03-01T12:40:03;9.50;99.90
26583;DHT22;14230;45.382;10.998;2023-03-01T12:43:10;9.50;99.90
26583;DHT22;14230;45.382;10.998;2023-03-01T12:51:08;9.30;99.90
26583;DHT22;14230;45.382;10.998;2023-03-01T12:53:46;9.30;99.90
26583;DHT22;14230;45.382;10.998;2023-03-01T12:56:19;9.30;99.90
26583;DHT22;14230;45.382;10.998;2023-03-01T12:58:59;9.30;99.90
26583;DHT22;14230;45.382;10.998;2023-03-01T13:07:41;9.60;99.90
26583;DHT22;14230;45.382;10.998;2023-03-01T13:13:19;9.80;99.90
26583;DHT22;14230;45.382;10.998;2023-03-01T13:15:47;9.90;99.90
26583;DHT22;14230;45.382;10.998;2023-03-01T13:31:00;9.90;99.90
26583;DHT22;14230;45.382;10.998;2023-03-01T13:35:57;9.90;99.90
26583;DHT22;14230;45.382;10.998;2023-03-01T13:38:48;9.70;99.90
26583;DHT22;14230;45.382;10.998;2023-03-01T13:46:57;9.30;99.90
26583;DHT22;14230;45.382;10.998;2023-03-01T13:49:29;9.20;99.90
26583;DHT22;14230;45.382;10.998;2023-03-01T13:54:56;9.10;99.90
26583;DHT22;14230;45.382;10.998;2023-03-01T13:57:28;9.10;99.90
26583;DHT22;14230;45.382;10.998;2023-03-01T13:59:56;9.10;99.90
26583;DHT22;14230;45.382;10.998;2023-03-01T14:02:24;9.10;99.90
26583;DHT22;14230;45.382;10.998;2023-03-01T14:04:59;9.00;99.90
26583;DHT22;14230;45.382;10.998;2023-03-01T14:07:27;9.00;99.90
26583;DHT22;14230;45.382;10.998;2023-03-01T14:10:01;8.80;99.90
26583;DHT22;14230;45.382;10.998;2023-03-01T14:15:22;8.40;99.90
26583;DHT22;14230;45.382;10.998;2023-03-01T14:18:54;8.30;99.90
26583;DHT22;14230;45.382;10.998;2023-03-01T14:21:14;8.20;99.90
26583;DHT22;14230;45.382;10.998;2023-03-01T14:23:43;8.10;99.90
26583;DHT22;14230;45.382;10.998;2023-03-01T14:26:10;8.10;99.90
26583;DHT22;14230;45.382;10.998;2023-03-01T14:28:39;8.00;99.90
26583;DHT22;14230;45.382;10.998;2023-03-01T14:31:32;7.90;99.90
26583;DHT22;14230;45.382;10.998;2023-03-01T14:34:20;7.90;99.90
26583;DHT22;14230;45.382;10.998;2023-03-01T14:36:48;7.80;99.90
26583;DHT22;14230;45.382;10.998;2023-03-01T14:39:22;7.70;99.90
26583;DHT22;14230;45.382;10.998;2023-03-01T14:41:51;7.70;99.90
26583;DHT22;14230;45.382;10.998;2023-03-01T14:44:23;7.60;99.90
26583;DHT22;14230;45.382;10.998;2023-03-01T14:46:54;7.60;99.90
26583;DHT22;14230;45.382;10.998;2023-03-01T14:49:29;7.60;99.90
26583;DHT22;14230;45.382;10.998;2023-03-01T14:51:59;7.60;99.90
26583;DHT22;14230;45.382;10.998;2023-03-01T14:55:02;7.60;99.90
26583;DHT22;14230;45.382;10.998;2023-03-01T14:57:31;7.60;99.90
26583;DHT22;14230;45.382;10.998;2023-03-01T15:00:01;7.60;99.90
26583;DHT22;14230;45.382;10.998;2023-03-01T15:02:33;7.60;99.90
26583;DHT22;14230;45.382;10.998;2023-03-01T15:05:03;7.60;99.90
26583;DHT22;14230;45.382;10.998;2023-03-01T15:07:40;7.60;99.90
26583;DHT22;14230;45.382;10.998;2023-03-01T15:10:22;7.50;99.90
26583;DHT22;14230;45.382;10.998;2023-03-01T15:12:50;7.40;99.90
26583;DHT22;14230;45.382;10.998;2023-03-01T15:15:33;7.40;99.90
26583;DHT22;14230;45.382;10.998;2023-03-01T15:18:03;7.30;99.90
26583;DHT22;14230;45.382;10.998;2023-03-01T15:20:33;7.20;99.90
26583;DHT22;14230;45.382;10.998;2023-03-01T15:23:03;7.10;99.90
26583;DHT22;14230;45.382;10.998;2023-03-01T15:25:32;7.00;99.90
26583;DHT22;14230;45.382;10.998;2023-03-01T15:28:01;6.90;99.90
26583;DHT22;14230;45.382;10.998;2023-03-01T15:30:33;6.90;99.90
26583;DHT22;14230;45.382;10.998;2023-03-01T15:35:53;6.80;99.90
26583;DHT22;14230;45.382;10.998;2023-03-01T15:38:54;6.70;99.90
26583;DHT22;14230;45.382;10.998;2023-03-01T15:41:26;6.70;99.90
26583;DHT22;14230;45.382;10.998;2023-03-01T15:43:54;6.60;99.90
26583;DHT22;14230;45.382;10.998;2023-03-01T15:46:29;6.60;99.90
26583;DHT22;14230;45.382;10.998;2023-03-01T15:49:06;6.60;99.90
26583;DHT22;14230;45.382;10.998;2023-03-01T15:51:47;6.60;99.90
26583;DHT22;14230;45.382;10.998;2023-03-01T15:54:18;6.50;99.90
26583;DHT22;14230;45.382;10.998;2023-03-01T15:56:47;6.50;99.90
26583;DHT22;14230;45.382;10.998;2023-03-01T15:59:14;6.50;99.90
26583;DHT22;14230;45.382;10.998;2023-03-01T16:01:42;6.50;99.90
26583;DHT22;14230;45.382;10.998;2023-03-01T16:04:13;6.40;99.90
26583;DHT22;14230;45.382;10.998;2023-03-01T16:06:47;6.40;99.90
26583;DHT22;14230;45.382;10.998;2023-03-01T16:09:22;6.30;99.90
26583;DHT22;14230;45.382;10.998;2023-03-01T16:11:51;6.20;99.90
26583;DHT22;14230;45.382;10.998;2023-03-01T16:14:20;6.20;99.90
26583;DHT22;14230;45.382;10.998;2023-03-01T16:16:47;6.20;99.90
26583;DHT22;14230;45.382;10.998;2023-03-01T16:19:18;6.20;99.90
26583;DHT22;14230;45.382;10.998;2023-03-01T16:21:45;6.20;99.90
26583;DHT22;14230;45.382;10.998;2023-03-01T16:24:14;6.10;99.90
26583;DHT22;14230;45.382;10.998;2023-03-01T16:26:41;6.10;99.90
26583;DHT22;14230;45.382;10.998;2023-03-01T16:29:09;6.10;99.90
26583;DHT22;14230;45.382;10.998;2023-03-01T16:31:36;6.00;99.90
26583;DHT22;14230;45.382;10.998;2023-03-01T16:34:04;6.00;99.90
26583;DHT22;14230;45.382;10.998;2023-03-01T16:36:31;6.00;99.90
26583;DHT22;14230;45.382;10.998;2023-03-01T16:39:00;6.00;99.90
26583;DHT22;14230;45.382;10.998;2023-03-01T16:41:32;6.00;99.90
26583;DHT22;14230;45.382;10.998;2023-03-01T16:44:00;6.00;99.90
26583;DHT22;14230;45.382;10.998;2023-03-01T16:46:28;6.00;99.90
26583;DHT22;14230;45.382;10.998;2023-03-01T16:48:56;6.00;99.90
26583;DHT22;14230;45.382;10.998;2023-03-01T16:51:24;5.90;99.90
26583;DHT22;14230;45.382;10.998;2023-03-01T16:53:52;6.00;99.90
26583;DHT22;14230;45.382;10.998;2023-03-01T16:56:21;6.00;99.90
26583;DHT22;14230;45.382;10.998;2023-03-01T16:58:48;6.00;99.90
26583;DHT22;14230;45.382;10.998;2023-03-01T17:01:19;6.00;99.90
26583;DHT22;14230;45.382;10.998;2023-03-01T17:03:47;6.00;99.90
26583;DHT22;14230;45.382;10.998;2023-03-01T17:06:20;6.00;99.90
26583;DHT22;14230;45.382;10.998;2023-03-01T17:08:49;6.00;99.90
26583;DHT22;14230;45.382;10.998;2023-03-01T17:11:18;6.10;99.90
26583;DHT22;14230;45.382;10.998;2023-03-01T17:13:46;6.10;99.90
26583;DHT22;14230;45.382;10.998;2023-03-01T17:16:15;6.10;99.90
26583;DHT22;14230;45.382;10.998;2023-03-01T17:18:43;6.00;99.90
26583;DHT22;14230;45.382;10.998;2023-03-01T17:21:11;6.00;99.90
26583;DHT22;14230;45.382;10.998;2023-03-01T17:23:43;6.00;99.90
26583;DHT22;14230;45.382;10.998;2023-03-01T17:26:10;6.00;99.90
26583;DHT22;14230;45.382;10.998;2023-03-01T17:28:40;6.10;99.90
26583;DHT22;14230;45.382;10.998;2023-03-01T17:31:07;6.00;99.90
26583;DHT22;14230;45.382;10.998;2023-03-01T17:33:35;6.00;99.90
26583;DHT22;14230;45.382;10.998;2023-03-01T17:36:03;6.00;99.90
26583;DHT22;14230;45.382;10.998;2023-03-01T17:38:31;6.00;99.90
26583;DHT22;14230;45.382;10.998;2023-03-01T17:40:59;6.10;99.90
26583;DHT22;14230;45.382;10.998;2023-03-01T17:43:27;6.10;99.90
26583;DHT22;14230;45.382;10.998;2023-03-01T17:45:56;6.10;99.90
26583;DHT22;14230;45.382;10.998;2023-03-01T17:48:23;6.10;99.90
26583;DHT22;14230;45.382;10.998;2023-03-01T17:50:52;6.00;99.90
26583;DHT22;14230;45.382;10.998;2023-03-01T17:53:19;6.00;99.90